Neptune Pioneer — 3EKH6 — position and weather

sailwx.info

Track history (hours):
 
Tides and Currents Weather Stations Pressure Air Temp Water Temp Dewpoint Dewpoint Depression Visibility Wind Speed Wind Dir Waves Ship Positions

Neptune Pioneer

Last reported at 2015-Apr-13 21:33 UTC. Time now 2015-Apr-18 03:22 UTC.
Position N 31°06' E 122°23'.

Length 190 m; draft 8.9 m.

Type: Cargo ship. MMSI: 372723000.

Date/timePositionNaut miles runAvg speedWind from/ knotsBaromVisibWave heightAir tempDewpointWater temp
2015-Apr-13 21:33N 31°06' E 122°23'1010.4
2015-Apr-13 20:33N 31°10' E 122°12'1111.3
2015-Apr-13 19:33N 31°15' E 121°60'1413.8
2015-Apr-13 18:33N 31°19' E 121°44'1211.6
2015-Apr-13 17:33N 31°24' E 121°32'1110.8
2015-Apr-13 16:33N 31°31' E 121°23'1413.8
2015-Apr-13 15:34N 31°41' E 121°11'1313.2
2015-Apr-13 14:33N 31°47' E 120°57'1212.0
2015-Apr-13 13:33N 31°58' E 120°51'1211.6
2015-Apr-13 12:33N 31°60' E 120°38'9 9.1
2015-Apr-13 11:34N 32°00' E 120°27'9 9.0
2015-Apr-13 10:33N 31°57' E 120°17'10 9.9
2015-Apr-13 09:33N 31°57' E 120°05'1414.0
2015-Apr-13 08:33N 32°07' E 119°54'13 0.3
2015-Apr-11 17:12N 32°19' E 119°49'0 0.0
2015-Apr-11 00:03N 32°19' E 119°49'0 0.0
2015-Apr-10 23:06N 32°19' E 119°49'0 0.0
2015-Apr-10 22:18N 32°19' E 119°49'0 0.0
2015-Apr-10 19:33N 32°19' E 119°49'0 0.0
2015-Apr-10 17:24N 32°19' E 119°49'0 0.0
2015-Apr-10 15:24N 32°19' E 119°49'17 2.9
2015-Apr-10 09:31N 32°03' E 119°56'9 9.6
2015-Apr-10 08:32N 31°57' E 120°05'8 8.6
2015-Apr-10 07:33N 31°57' E 120°15'1010.0
2015-Apr-10 06:33N 32°02' E 120°25'8 7.6
2015-Apr-10 05:30N 32°03' E 120°34'8 8.1
2015-Apr-10 04:33N 32°00' E 120°43'7 6.7
2015-Apr-10 03:33N 31°59' E 120°51'8 8.3
2015-Apr-10 02:32N 31°51' E 120°54'6 6.1
2015-Apr-10 01:33N 31°47' E 120°59'7 7.2
2015-Apr-10 00:33N 31°44' E 121°07'0 0.4
2015-Apr-09 23:33N 31°44' E 121°07'10 9.7
2015-Apr-09 22:34N 31°38' E 121°15'1312.5
2015-Apr-09 21:34N 31°29' E 121°26'10 9.7
2015-Apr-09 20:34N 31°23' E 121°35'10 9.6
2015-Apr-09 19:34N 31°18' E 121°44'1111.1
2015-Apr-09 18:34N 31°10' E 121°53'1111.0
2015-Apr-09 17:33N 31°04' E 122°04'9 9.1
2015-Apr-09 16:34N 31°03' E 122°15'1211.6
2015-Apr-09 15:29N 31°00' E 122°29'21 1.2
2015-Apr-08 21:09N 31°11' E 122°51'0 0.1
2015-Apr-08 20:33N 31°11' E 122°51'  
2015-Apr-05 02:06N 31°11' E 122°50'1 2.2
2015-Apr-05 01:29N 31°11' E 122°51'7 5.9
2015-Apr-05 00:16N 31°12' E 122°60'  
Track history (hours):
 
Tides and Currents Weather Stations Pressure Air Temp Water Temp Dewpoint Dewpoint Depression Visibility Wind Speed Wind Dir Waves Ship Positions

Neptune Pioneer

Last reported at 2015-Apr-13 21:33 UTC. Time now 2015-Apr-18 03:22 UTC.
Position N 31°06' E 122°23'.

Length 190 m; draft 8.9 m.

Type: Cargo ship. MMSI: 372723000.

Date/timePositionNaut miles runAvg speedWind from/ knotsBaromVisibWave heightAir tempDewpointWater temp
2015-Apr-13 21:33N 31°06' E 122°23'1010.4
2015-Apr-13 20:33N 31°10' E 122°12'1111.3
2015-Apr-13 19:33N 31°15' E 121°60'1413.8
2015-Apr-13 18:33N 31°19' E 121°44'1211.6
2015-Apr-13 17:33N 31°24' E 121°32'1110.8
2015-Apr-13 16:33N 31°31' E 121°23'1413.8
2015-Apr-13 15:34N 31°41' E 121°11'1313.2
2015-Apr-13 14:33N 31°47' E 120°57'1212.0
2015-Apr-13 13:33N 31°58' E 120°51'1211.6
2015-Apr-13 12:33N 31°60' E 120°38'9 9.1
2015-Apr-13 11:34N 32°00' E 120°27'9 9.0
2015-Apr-13 10:33N 31°57' E 120°17'10 9.9
2015-Apr-13 09:33N 31°57' E 120°05'1414.0
2015-Apr-13 08:33N 32°07' E 119°54'13 0.3
2015-Apr-11 17:12N 32°19' E 119°49'0 0.0
2015-Apr-11 00:03N 32°19' E 119°49'0 0.0
2015-Apr-10 23:06N 32°19' E 119°49'0 0.0
2015-Apr-10 22:18N 32°19' E 119°49'0 0.0
2015-Apr-10 19:33N 32°19' E 119°49'0 0.0
2015-Apr-10 17:24N 32°19' E 119°49'0 0.0
2015-Apr-10 15:24N 32°19' E 119°49'17 2.9
2015-Apr-10 09:31N 32°03' E 119°56'9 9.6
2015-Apr-10 08:32N 31°57' E 120°05'8 8.6
2015-Apr-10 07:33N 31°57' E 120°15'1010.0
2015-Apr-10 06:33N 32°02' E 120°25'8 7.6
2015-Apr-10 05:30N 32°03' E 120°34'8 8.1
2015-Apr-10 04:33N 32°00' E 120°43'7 6.7
2015-Apr-10 03:33N 31°59' E 120°51'8 8.3
2015-Apr-10 02:32N 31°51' E 120°54'6 6.1
2015-Apr-10 01:33N 31°47' E 120°59'7 7.2
2015-Apr-10 00:33N 31°44' E 121°07'0 0.4
2015-Apr-09 23:33N 31°44' E 121°07'10 9.7
2015-Apr-09 22:34N 31°38' E 121°15'1312.5
2015-Apr-09 21:34N 31°29' E 121°26'10 9.7
2015-Apr-09 20:34N 31°23' E 121°35'10 9.6
2015-Apr-09 19:34N 31°18' E 121°44'1111.1
2015-Apr-09 18:34N 31°10' E 121°53'1111.0
2015-Apr-09 17:33N 31°04' E 122°04'9 9.1
2015-Apr-09 16:34N 31°03' E 122°15'1211.6
2015-Apr-09 15:29N 31°00' E 122°29'21 1.2
2015-Apr-08 21:09N 31°11' E 122°51'0 0.1
2015-Apr-08 20:33N 31°11' E 122°51'  
2015-Apr-05 02:06N 31°11' E 122°50'1 2.2
2015-Apr-05 01:29N 31°11' E 122°51'7 5.9
2015-Apr-05 00:16N 31°12' E 122°60'  

Dump ship's entire track history